createdAt,value
2018-05-25T00:00:00.556Z,2.10
2018-05-25T00:02:28.882Z,1.83
2018-05-25T00:04:56.396Z,1.67
2018-05-25T00:07:23.934Z,1.67
2018-05-25T00:09:51.466Z,1.70
2018-05-25T00:12:18.996Z,1.83
2018-05-25T00:14:46.602Z,1.20
2018-05-25T00:17:14.135Z,1.60
2018-05-25T00:19:41.669Z,1.53
2018-05-25T00:22:09.230Z,2.00
2018-05-25T00:24:36.804Z,1.80
2018-05-25T00:27:04.331Z,1.70
2018-05-25T00:29:31.903Z,1.50
2018-05-25T00:31:59.420Z,1.73
2018-05-25T00:34:26.940Z,1.70
2018-05-25T00:36:54.523Z,1.80
2018-05-25T00:39:22.078Z,1.83
2018-05-25T00:41:49.584Z,1.70
2018-05-25T00:44:31.342Z,1.60
2018-05-25T00:46:58.873Z,1.80
2018-05-25T00:49:26.387Z,1.80
2018-05-25T00:51:53.971Z,1.80
2018-05-25T00:54:21.516Z,1.73
2018-05-25T00:56:49.030Z,1.73
2018-05-25T00:59:16.595Z,1.53
2018-05-25T01:01:44.107Z,1.90
2018-05-25T01:04:11.635Z,1.77
2018-05-25T01:06:39.962Z,1.70
2018-05-25T01:09:07.551Z,1.60
2018-05-25T01:11:35.066Z,1.70
2018-05-25T01:14:02.605Z,1.60
2018-05-25T01:16:30.142Z,1.90
2018-05-25T01:18:58.433Z,2.00
2018-05-25T01:21:25.948Z,2.10
2018-05-25T01:23:53.539Z,1.90
2018-05-25T01:26:21.115Z,2.00
2018-05-25T01:28:48.678Z,1.90
2018-05-25T01:31:16.296Z,2.00
2018-05-25T01:33:43.800Z,1.93
2018-05-25T01:36:11.316Z,1.83
2018-05-25T01:38:38.872Z,1.93
2018-05-25T01:41:06.391Z,1.80
2018-05-25T01:43:33.926Z,1.90
2018-05-25T01:46:01.466Z,1.73
2018-05-25T01:48:28.981Z,1.87
2018-05-25T01:50:56.508Z,2.17
2018-05-25T01:53:24.107Z,1.90
2018-05-25T01:55:51.759Z,1.80
2018-05-25T01:58:19.291Z,1.73
2018-05-25T02:00:46.840Z,1.50
2018-05-25T02:03:14.356Z,1.40
2018-05-25T02:05:41.890Z,1.87
2018-05-25T02:08:09.436Z,1.67
2018-05-25T02:10:36.976Z,2.00
2018-05-25T02:13:04.525Z,1.70
2018-05-25T02:15:32.051Z,1.70
2018-05-25T02:17:59.591Z,1.80
2018-05-25T02:20:27.130Z,2.07
2018-05-25T02:22:54.701Z,2.37
2018-05-25T02:25:22.211Z,2.70
2018-05-25T02:27:49.780Z,2.30
2018-05-25T02:30:17.331Z,2.80
2018-05-25T02:32:44.888Z,2.33
2018-05-25T02:35:12.434Z,2.27
2018-05-25T02:37:40.737Z,2.13
2018-05-25T02:40:08.283Z,1.70
2018-05-25T02:42:35.882Z,1.83
2018-05-25T02:45:03.424Z,2.00
2018-05-25T02:47:30.952Z,1.97
2018-05-25T02:49:59.242Z,1.93
2018-05-25T02:52:26.763Z,1.60
2018-05-25T02:54:54.301Z,1.70
2018-05-25T02:57:21.900Z,2.17
2018-05-25T02:59:49.465Z,2.10
2018-05-25T03:02:17.040Z,2.03
2018-05-25T03:04:44.706Z,2.40
2018-05-25T03:07:12.247Z,2.20
2018-05-25T03:09:39.779Z,1.70
2018-05-25T03:12:08.119Z,1.80
2018-05-25T03:14:35.635Z,1.77
2018-05-25T03:17:03.199Z,1.83
2018-05-25T03:19:31.467Z,1.83
2018-05-25T03:21:59.053Z,1.97
2018-05-25T03:24:26.722Z,1.57
2018-05-25T03:26:54.246Z,2.00
2018-05-25T03:29:21.800Z,1.90
2018-05-25T03:31:49.442Z,1.90
2018-05-25T03:34:16.962Z,1.87
2018-05-25T03:36:44.622Z,2.00
2018-05-25T03:39:12.133Z,2.00
2018-05-25T03:41:40.448Z,1.83
2018-05-25T03:44:08.771Z,2.47
2018-05-25T03:46:36.334Z,1.90
2018-05-25T03:49:03.895Z,2.30
2018-05-25T03:51:31.403Z,2.00
2018-05-25T03:53:58.937Z,1.77
2018-05-25T03:56:26.460Z,2.23
2018-05-25T03:59:05.652Z,2.47
2018-05-25T04:01:45.160Z,3.13
2018-05-25T04:04:12.707Z,2.63
2018-05-25T04:06:40.256Z,3.20
2018-05-25T04:09:07.787Z,2.90
2018-05-25T04:11:35.326Z,2.63
2018-05-25T04:14:08.063Z,2.77
2018-05-25T04:16:35.603Z,1.87
2018-05-25T04:19:04.015Z,2.30
2018-05-25T04:21:32.283Z,1.90
2018-05-25T04:24:00.620Z,2.40
2018-05-25T04:26:28.132Z,2.77
2018-05-25T04:28:55.670Z,2.30
2018-05-25T04:31:23.995Z,2.53
2018-05-25T04:33:51.523Z,2.40
2018-05-25T04:36:19.070Z,2.90
2018-05-25T04:38:47.411Z,3.33
2018-05-25T04:41:14.952Z,3.37
2018-05-25T04:43:42.512Z,2.10
2018-05-25T04:46:10.044Z,2.30
2018-05-25T04:48:37.603Z,2.27
2018-05-25T04:51:05.107Z,3.00
2018-05-25T04:53:32.643Z,2.33
2018-05-25T04:56:00.175Z,2.43
2018-05-25T04:58:27.707Z,2.63
2018-05-25T05:00:56.005Z,2.73
2018-05-25T05:03:28.473Z,2.60
2018-05-25T05:05:56.767Z,2.50
2018-05-25T05:08:24.378Z,2.67
2018-05-25T05:10:51.906Z,2.20
2018-05-25T05:13:19.946Z,2.30
2018-05-25T05:15:47.481Z,2.40
2018-05-25T05:18:15.789Z,2.00
2018-05-25T05:20:43.326Z,2.43
2018-05-25T05:23:11.642Z,2.20
2018-05-25T05:25:39.158Z,3.50
2018-05-25T05:28:07.474Z,3.13
2018-05-25T05:30:35.039Z,3.33
2018-05-25T05:33:02.550Z,3.53
2018-05-25T05:35:30.126Z,2.50
2018-05-25T05:37:57.644Z,2.00
2018-05-25T05:40:25.176Z,2.10
2018-05-25T05:42:52.763Z,2.40
2018-05-25T05:45:20.296Z,2.00
2018-05-25T05:47:47.887Z,2.10
2018-05-25T05:50:15.424Z,2.30
2018-05-25T05:52:42.955Z,2.70
2018-05-25T05:55:10.522Z,3.43
2018-05-25T05:57:38.088Z,2.97
2018-05-25T06:00:05.629Z,2.93
2018-05-25T06:02:33.973Z,2.60
2018-05-25T06:05:15.800Z,2.83
2018-05-25T06:07:43.379Z,2.77
2018-05-25T06:10:10.883Z,2.40
2018-05-25T06:12:39.171Z,2.67
2018-05-25T06:15:06.930Z,2.37
2018-05-25T06:17:34.443Z,2.97
2018-05-25T06:20:02.006Z,3.10
2018-05-25T06:22:29.605Z,3.13
2018-05-25T06:24:57.133Z,3.50
2018-05-25T06:27:24.644Z,2.90
2018-05-25T06:29:52.171Z,2.80
2018-05-25T06:32:19.722Z,2.83
2018-05-25T06:34:47.310Z,2.33
2018-05-25T06:37:14.864Z,3.03
2018-05-25T06:39:42.455Z,2.30
2018-05-25T06:42:09.998Z,2.47
2018-05-25T06:44:37.530Z,1.90
2018-05-25T06:47:05.091Z,2.23
2018-05-25T06:49:32.619Z,2.20
2018-05-25T06:52:00.138Z,2.83
2018-05-25T06:54:27.662Z,3.10
2018-05-25T06:56:55.182Z,3.13
2018-05-25T06:59:22.715Z,3.00
2018-05-25T07:01:50.249Z,3.00
2018-05-25T07:04:17.806Z,3.03
2018-05-25T07:06:45.342Z,4.07
2018-05-25T07:09:12.873Z,2.90
2018-05-25T07:11:40.415Z,2.30
2018-05-25T07:14:07.940Z,2.30
2018-05-25T07:16:35.466Z,2.17
2018-05-25T07:19:03.764Z,1.87
2018-05-25T07:21:31.307Z,1.60
2018-05-25T07:23:58.844Z,2.20
2018-05-25T07:26:26.385Z,1.67
2018-05-25T07:28:53.915Z,1.80
2018-05-25T07:31:21.420Z,2.00
2018-05-25T07:33:48.983Z,2.20
2018-05-25T07:36:16.513Z,1.60
2018-05-25T07:38:44.035Z,1.90
2018-05-25T07:41:11.620Z,2.10
2018-05-25T07:43:39.682Z,2.67
2018-05-25T07:46:07.305Z,2.00
2018-05-25T07:48:34.903Z,2.67
2018-05-25T07:51:02.515Z,2.50
2018-05-25T07:53:30.890Z,3.07
2018-05-25T07:55:58.504Z,2.63
2018-05-25T07:58:26.141Z,2.70
2018-05-25T08:00:53.735Z,2.80
2018-05-25T08:03:21.524Z,3.03
2018-05-25T08:05:49.160Z,2.77
2018-05-25T08:08:16.789Z,3.10
2018-05-25T08:10:44.460Z,3.23
2018-05-25T08:13:12.048Z,3.50
2018-05-25T08:15:39.655Z,3.20
2018-05-25T08:18:07.299Z,3.07
2018-05-25T08:20:34.959Z,3.13
2018-05-25T08:23:03.363Z,3.30
2018-05-25T08:25:30.988Z,2.77
2018-05-25T08:27:59.342Z,3.00
2018-05-25T08:30:26.961Z,2.90
2018-05-25T08:32:54.580Z,2.83
2018-05-25T08:35:22.129Z,2.60
2018-05-25T08:37:49.842Z,2.67
2018-05-25T08:40:17.439Z,2.43
2018-05-25T08:42:45.055Z,2.40
2018-05-25T08:45:12.687Z,2.40
2018-05-25T08:47:40.253Z,2.70
2018-05-25T08:50:07.856Z,2.40
2018-05-25T08:52:35.551Z,2.40
2018-05-25T08:55:03.110Z,2.70
2018-05-25T08:57:30.704Z,2.40
2018-05-25T08:59:58.308Z,2.27
2018-05-25T09:02:25.922Z,2.40
2018-05-25T09:04:54.318Z,5.47
2018-05-25T09:07:21.905Z,3.30
2018-05-25T09:09:49.488Z,2.50
2018-05-25T09:12:17.130Z,2.20
2018-05-25T09:14:44.750Z,2.20
2018-05-25T09:17:12.308Z,2.53
2018-05-25T09:19:39.933Z,2.50
2018-05-25T09:22:07.551Z,2.73
2018-05-25T09:24:35.141Z,2.50
2018-05-25T09:27:02.772Z,2.20
2018-05-25T09:29:30.358Z,2.40
2018-05-25T09:31:57.953Z,2.73
2018-05-25T09:34:26.357Z,2.30
2018-05-25T09:36:53.971Z,2.07
2018-05-25T09:39:21.571Z,3.20
2018-05-25T09:41:49.218Z,2.73
2018-05-25T09:44:21.996Z,2.33
2018-05-25T09:46:49.627Z,2.23
2018-05-25T09:49:17.223Z,2.37
2018-05-25T09:51:44.906Z,2.77
2018-05-25T09:54:12.574Z,2.30
2018-05-25T09:56:59.756Z,2.60
2018-05-25T09:59:27.386Z,2.73
2018-05-25T10:01:54.977Z,2.50
2018-05-25T10:04:27.675Z,2.70
2018-05-25T10:06:55.219Z,2.53
2018-05-25T10:09:23.495Z,3.97
2018-05-25T10:11:51.046Z,2.77
2018-05-25T10:14:33.699Z,2.80
2018-05-25T10:17:01.243Z,2.67
2018-05-25T10:19:28.876Z,3.17
2018-05-25T10:21:56.730Z,2.87
2018-05-25T10:24:24.354Z,3.23
2018-05-25T10:26:51.991Z,3.13
2018-05-25T10:29:19.594Z,2.47
2018-05-25T10:31:47.243Z,2.30
2018-05-25T10:34:14.865Z,2.30
2018-05-25T10:36:42.480Z,2.30
2018-05-25T10:39:10.126Z,2.20
2018-05-25T10:41:37.751Z,2.37
2018-05-25T10:44:05.327Z,2.30
2018-05-25T10:46:32.836Z,2.17
2018-05-25T10:49:00.367Z,2.13
2018-05-25T10:51:27.915Z,2.37
2018-05-25T10:53:55.454Z,2.50
2018-05-25T10:56:23.001Z,2.43
2018-05-25T10:58:50.523Z,2.57
2018-05-25T11:01:18.079Z,2.10
2018-05-25T11:03:45.637Z,2.43
2018-05-25T11:06:13.181Z,2.30
2018-05-25T11:08:40.737Z,2.50
2018-05-25T11:11:08.422Z,2.40
2018-05-25T11:13:36.783Z,2.70
2018-05-25T11:16:04.419Z,2.23
2018-05-25T11:18:32.077Z,2.83
2018-05-25T11:20:59.745Z,2.50
2018-05-25T11:23:28.070Z,2.50
2018-05-25T11:25:55.684Z,3.00
2018-05-25T11:28:23.326Z,2.50
2018-05-25T11:30:50.916Z,2.43
2018-05-25T11:33:18.666Z,2.73
2018-05-25T11:35:46.207Z,2.60
2018-05-25T11:38:14.217Z,2.57
2018-05-25T11:40:41.747Z,2.37
2018-05-25T11:43:09.289Z,3.00
2018-05-25T11:45:37.562Z,2.53
2018-05-25T11:48:05.151Z,2.90
2018-05-25T11:50:32.671Z,3.37
2018-05-25T11:53:00.231Z,2.53
2018-05-25T11:55:27.773Z,2.63
2018-05-25T11:57:55.351Z,2.67
2018-05-25T12:00:22.904Z,2.93
2018-05-25T12:02:50.443Z,2.67
2018-05-25T12:05:27.770Z,2.80
2018-05-25T12:07:55.299Z,4.40
2018-05-25T12:10:23.605Z,2.70
2018-05-25T12:12:51.176Z,2.47
2018-05-25T12:15:18.690Z,3.20
2018-05-25T12:17:46.234Z,2.67
2018-05-25T12:20:13.813Z,2.80
2018-05-25T12:22:41.342Z,3.30
2018-05-25T12:25:08.968Z,3.13
2018-05-25T12:27:37.350Z,2.87
2018-05-25T12:30:04.991Z,2.90
2018-05-25T12:32:32.569Z,2.40
2018-05-25T12:35:00.192Z,2.70
2018-05-25T12:37:27.823Z,2.45
2018-05-25T12:39:56.212Z,2.90
2018-05-25T12:42:23.835Z,2.97
2018-05-25T12:45:03.013Z,2.90
2018-05-25T12:47:30.632Z,3.28
2018-05-25T12:49:58.289Z,2.87
2018-05-25T12:52:25.910Z,3.13
2018-05-25T12:54:53.523Z,2.90
2018-05-25T12:57:21.138Z,2.90
2018-05-25T12:59:48.728Z,3.13
2018-05-25T13:02:16.363Z,2.80
2018-05-25T13:04:43.963Z,2.83
2018-05-25T13:07:11.570Z,3.40
2018-05-25T13:09:39.156Z,2.73
2018-05-25T13:12:06.710Z,2.90
2018-05-25T13:14:34.280Z,3.05
2018-05-25T13:17:01.891Z,2.75
2018-05-25T13:19:29.520Z,3.10
2018-05-25T13:21:57.164Z,2.90
2018-05-25T13:24:24.780Z,3.50
2018-05-25T13:26:52.449Z,3.53
2018-05-25T13:29:19.999Z,3.87
2018-05-25T13:31:47.600Z,3.30
2018-05-25T13:34:15.783Z,2.90
2018-05-25T13:36:43.399Z,2.83
2018-05-25T13:39:11.026Z,2.72
2018-05-25T13:41:39.388Z,3.05
2018-05-25T13:44:06.994Z,2.95
2018-05-25T13:46:34.560Z,2.42
2018-05-25T13:49:02.164Z,3.03
2018-05-25T13:51:29.755Z,2.53
2018-05-25T13:53:57.338Z,2.62
2018-05-25T13:56:24.921Z,3.03
2018-05-25T13:58:52.509Z,2.60
2018-05-25T14:01:20.168Z,2.53
2018-05-25T14:03:47.751Z,2.67
2018-05-25T14:06:15.385Z,2.70
2018-05-25T14:08:43.725Z,2.45
2018-05-25T14:11:11.338Z,3.08
2018-05-25T14:13:38.964Z,2.62
2018-05-25T14:16:06.610Z,2.55
2018-05-25T14:18:34.268Z,2.53
2018-05-25T14:21:01.870Z,2.67
2018-05-25T14:23:29.466Z,2.60
2018-05-25T14:25:57.064Z,2.62
2018-05-25T14:28:24.688Z,2.60
2018-05-25T14:30:52.270Z,2.50
2018-05-25T14:33:19.832Z,2.60
2018-05-25T14:35:47.453Z,2.75
2018-05-25T14:38:15.095Z,2.83
2018-05-25T14:40:43.521Z,2.70
2018-05-25T14:43:11.125Z,2.70
2018-05-25T14:45:38.744Z,2.92
2018-05-25T14:48:06.368Z,2.97
2018-05-25T14:50:33.963Z,2.60
2018-05-25T14:53:01.596Z,2.62
2018-05-25T14:55:29.119Z,2.90
2018-05-25T14:57:56.638Z,2.72
2018-05-25T15:00:24.229Z,2.53
2018-05-25T15:02:51.754Z,2.75
2018-05-25T15:05:19.296Z,2.65
2018-05-25T15:07:46.823Z,3.00
2018-05-25T15:10:15.119Z,2.70
2018-05-25T15:12:43.461Z,2.40
2018-05-25T15:15:10.993Z,2.75
2018-05-25T15:17:38.515Z,2.60
2018-05-25T15:20:06.116Z,3.15
2018-05-25T15:22:33.626Z,2.55
2018-05-25T15:25:01.184Z,3.40
2018-05-25T15:27:29.487Z,3.17
2018-05-25T15:29:57.033Z,2.72
2018-05-25T15:32:24.580Z,2.97
2018-05-25T15:34:52.131Z,3.00
2018-05-25T15:37:20.420Z,3.30
2018-05-25T15:39:47.939Z,2.90
2018-05-25T15:42:15.488Z,2.80
2018-05-25T15:44:43.023Z,2.90
2018-05-25T15:47:10.843Z,2.72
2018-05-25T15:49:38.337Z,2.60
2018-05-25T15:52:05.875Z,2.90
2018-05-25T15:54:34.179Z,2.60
2018-05-25T15:57:01.758Z,2.85
2018-05-25T15:59:29.295Z,2.72
2018-05-25T16:01:56.856Z,2.70
2018-05-25T16:04:24.532Z,3.30
2018-05-25T16:06:52.205Z,2.62
2018-05-25T16:09:19.815Z,2.97
2018-05-25T16:11:47.444Z,2.78
2018-05-25T16:14:15.983Z,3.10
2018-05-25T16:16:44.378Z,2.87
2018-05-25T16:19:11.987Z,2.90
2018-05-25T16:21:39.620Z,2.65
2018-05-25T16:24:07.237Z,3.10
2018-05-25T16:26:34.842Z,2.83
2018-05-25T16:29:02.482Z,2.58
2018-05-25T16:31:30.119Z,2.50
2018-05-25T16:33:57.755Z,2.77
2018-05-25T16:36:25.359Z,2.67
2018-05-25T16:38:53.005Z,2.50
2018-05-25T16:41:20.636Z,2.77
2018-05-25T16:43:48.204Z,2.63
2018-05-25T16:46:15.797Z,3.20
2018-05-25T16:48:43.431Z,2.70
2018-05-25T16:51:11.041Z,2.70
2018-05-25T16:53:39.454Z,2.90
2018-05-25T16:56:07.069Z,2.70
2018-05-25T16:58:34.714Z,2.27
2018-05-25T17:01:02.340Z,3.07
2018-05-25T17:03:29.973Z,2.80
2018-05-25T17:05:58.388Z,3.10
2018-05-25T17:08:26.744Z,2.57
2018-05-25T17:10:54.324Z,2.80
2018-05-25T17:13:21.905Z,3.37
2018-05-25T17:15:49.491Z,2.90
2018-05-25T17:18:17.095Z,2.37
2018-05-25T17:20:44.744Z,2.73
2018-05-25T17:23:12.284Z,2.60
2018-05-25T17:25:39.786Z,3.00
2018-05-25T17:28:07.334Z,2.90
2018-05-25T17:30:34.982Z,2.83
2018-05-25T17:33:02.398Z,2.80
2018-05-25T17:35:29.919Z,2.47
2018-05-25T17:37:57.476Z,2.50
2018-05-25T17:40:25.025Z,2.70
2018-05-25T17:42:52.565Z,2.83
2018-05-25T17:45:20.103Z,3.40
2018-05-25T17:47:48.456Z,3.63
2018-05-25T17:50:15.983Z,2.80
2018-05-25T17:52:43.535Z,2.60
2018-05-25T17:55:11.139Z,3.47
2018-05-25T17:57:38.653Z,2.53
2018-05-25T18:00:06.213Z,4.57
2018-05-25T18:02:33.744Z,3.67
2018-05-25T18:05:11.000Z,5.47
2018-05-25T18:07:38.513Z,3.47
2018-05-25T18:10:06.075Z,2.80
2018-05-25T18:12:33.615Z,3.10
2018-05-25T18:15:01.132Z,2.80
2018-05-25T18:17:28.726Z,2.80
2018-05-25T18:19:56.188Z,3.07
2018-05-25T18:22:23.729Z,3.27
2018-05-25T18:24:52.019Z,3.20
2018-05-25T18:27:19.779Z,3.40
2018-05-25T18:29:48.056Z,4.00
2018-05-25T18:32:15.580Z,3.70
2018-05-25T18:34:43.166Z,6.03
2018-05-25T18:37:10.699Z,3.63
2018-05-25T18:39:38.252Z,3.40
2018-05-25T18:42:05.801Z,3.23
2018-05-25T18:44:33.327Z,3.03
2018-05-25T18:47:00.939Z,3.30
2018-05-25T18:49:28.488Z,3.07
2018-05-25T18:51:56.073Z,3.30
2018-05-25T18:54:32.432Z,3.10
2018-05-25T18:57:00.037Z,3.30
2018-05-25T18:59:27.554Z,4.43
2018-05-25T19:01:55.831Z,3.67
2018-05-25T19:04:23.496Z,3.03
2018-05-25T19:06:51.002Z,3.20
2018-05-25T19:09:18.531Z,3.60
2018-05-25T19:11:46.068Z,2.90
2018-05-25T19:14:18.571Z,3.53
2018-05-25T19:16:46.103Z,3.57
2018-05-25T19:19:14.384Z,3.10
2018-05-25T19:21:41.905Z,3.40
2018-05-25T19:24:09.464Z,3.27
2018-05-25T19:26:36.991Z,4.37
2018-05-25T19:29:04.507Z,4.10
2018-05-25T19:31:32.030Z,3.87
2018-05-25T19:33:59.567Z,3.30
2018-05-25T19:36:27.133Z,3.57
2018-05-25T19:38:54.660Z,4.53
2018-05-25T19:41:22.173Z,3.80
2018-05-25T19:43:49.743Z,3.23
2018-05-25T19:46:17.321Z,3.20
2018-05-25T19:48:44.914Z,3.07
2018-05-25T19:51:12.423Z,2.90
2018-05-25T19:53:40.910Z,3.80
2018-05-25T19:56:09.204Z,3.37
2018-05-25T19:58:36.757Z,3.83
2018-05-25T20:01:04.300Z,3.80
2018-05-25T20:03:32.611Z,3.43
2018-05-25T20:06:00.183Z,3.00
2018-05-25T20:08:27.761Z,3.33
2018-05-25T20:10:55.320Z,3.27
2018-05-25T20:13:22.866Z,3.30
2018-05-25T20:15:50.447Z,3.70
2018-05-25T20:18:18.004Z,3.40
2018-05-25T20:20:45.542Z,3.30
2018-05-25T20:23:13.133Z,3.80
2018-05-25T20:25:40.674Z,3.53
2018-05-25T20:28:08.200Z,3.57
2018-05-25T20:30:35.731Z,3.00
2018-05-25T20:33:04.010Z,2.63
2018-05-25T20:35:31.825Z,3.30
2018-05-25T20:37:59.357Z,3.00
2018-05-25T20:40:26.883Z,3.33
2018-05-25T20:42:54.418Z,3.17
2018-05-25T20:45:21.937Z,3.30
2018-05-25T20:47:49.457Z,3.07
2018-05-25T20:50:17.000Z,3.00
2018-05-25T20:52:44.599Z,2.90
2018-05-25T20:55:12.158Z,3.10
2018-05-25T20:57:39.667Z,3.10
2018-05-25T21:00:07.209Z,3.40
2018-05-25T21:02:34.727Z,2.97
2018-05-25T21:05:02.252Z,3.00
2018-05-25T21:07:29.777Z,2.70
2018-05-25T21:09:57.291Z,2.70
2018-05-25T21:12:24.800Z,3.00
2018-05-25T21:14:52.342Z,3.00
2018-05-25T21:17:19.843Z,2.90
2018-05-25T21:19:47.389Z,2.80
2018-05-25T21:22:14.911Z,2.63
2018-05-25T21:24:42.610Z,2.53
2018-05-25T21:27:10.140Z,2.83
2018-05-25T21:29:37.648Z,2.50
2018-05-25T21:32:05.189Z,2.90
2018-05-25T21:34:33.871Z,2.70
2018-05-25T21:37:01.454Z,2.73
2018-05-25T21:39:29.745Z,2.70
2018-05-25T21:41:57.281Z,3.00
2018-05-25T21:44:24.824Z,2.47
2018-05-25T21:46:52.368Z,2.53
2018-05-25T21:49:19.967Z,2.60
2018-05-25T21:51:48.327Z,2.70
2018-05-25T21:54:15.863Z,2.80
2018-05-25T21:56:43.382Z,2.53
2018-05-25T21:59:10.915Z,2.43
2018-05-25T22:01:38.456Z,2.50
2018-05-25T22:04:06.015Z,3.03
2018-05-25T22:06:33.528Z,2.47
2018-05-25T22:09:01.124Z,2.57
2018-05-25T22:11:28.646Z,2.27
2018-05-25T22:13:56.192Z,2.50
2018-05-25T22:16:23.732Z,2.73
2018-05-25T22:18:52.008Z,2.37
2018-05-25T22:21:20.286Z,2.40
2018-05-25T22:23:52.954Z,2.40
2018-05-25T22:26:20.466Z,2.33
2018-05-25T22:28:47.995Z,2.40
2018-05-25T22:31:15.511Z,2.77
2018-05-25T22:33:43.049Z,3.30
2018-05-25T22:36:10.598Z,3.07
2018-05-25T22:38:38.186Z,3.03
2018-05-25T22:41:05.801Z,4.90
2018-05-25T22:43:44.912Z,3.40
2018-05-25T22:46:24.267Z,3.00
2018-05-25T22:49:03.394Z,2.20
2018-05-25T22:51:42.882Z,2.77
2018-05-25T22:54:15.934Z,2.90
2018-05-25T22:56:43.470Z,2.87
2018-05-25T22:59:10.991Z,3.37
2018-05-25T23:01:38.518Z,2.87
2018-05-25T23:04:06.071Z,2.63
2018-05-25T23:06:33.614Z,3.07
2018-05-25T23:09:01.139Z,2.80
2018-05-25T23:11:29.410Z,2.67
2018-05-25T23:13:57.708Z,2.90
2018-05-25T23:16:25.231Z,2.70
2018-05-25T23:18:52.746Z,2.47
2018-05-25T23:21:20.353Z,3.13
2018-05-25T23:23:47.870Z,2.43
2018-05-25T23:26:15.391Z,2.60
2018-05-25T23:28:42.919Z,2.47
2018-05-25T23:31:10.510Z,2.90
2018-05-25T23:33:38.018Z,2.50
2018-05-25T23:36:05.583Z,2.60
2018-05-25T23:38:33.115Z,2.23
2018-05-25T23:41:00.630Z,2.60
2018-05-25T23:43:28.154Z,2.60
2018-05-25T23:45:55.693Z,2.83
2018-05-25T23:48:23.215Z,2.20
2018-05-25T23:50:50.714Z,2.57
2018-05-25T23:53:18.232Z,2.40
2018-05-25T23:55:45.779Z,2.60
2018-05-25T23:58:14.084Z,2.80
